sensor_id;sensor_type;location;lat;lon;timestamp;temperature;humidity
30063;DHT22;16889;67.864;24.990;2023-10-08T00:00:52;-3.30;99.90
30063;DHT22;16889;67.864;24.990;2023-10-08T00:05:41;-3.30;99.90
30063;DHT22;16889;67.864;24.990;2023-10-08T00:10:27;-3.30;99.90
30063;DHT22;16889;67.864;24.990;2023-10-08T00:15:13;-3.20;99.90
30063;DHT22;16889;67.864;24.990;2023-10-08T00:19:59;-3.30;99.90
30063;DHT22;16889;67.864;24.990;2023-10-08T00:24:46;-3.20;99.90
30063;DHT22;16889;67.864;24.990;2023-10-08T00:29:35;-3.10;99.90
30063;DHT22;16889;67.864;24.990;2023-10-08T00:34:25;-3.20;99.90
30063;DHT22;16889;67.864;24.990;2023-10-08T00:39:13;-3.40;99.90
30063;DHT22;16889;67.864;24.990;2023-10-08T00:43:59;-3.50;99.90
30063;DHT22;16889;67.864;24.990;2023-10-08T00:48:46;-3.40;99.90
30063;DHT22;16889;67.864;24.990;2023-10-08T00:53:32;-3.50;99.90
30063;DHT22;16889;67.864;24.990;2023-10-08T00:58:25;-3.60;99.90
30063;DHT22;16889;67.864;24.990;2023-10-08T01:03:12;-3.60;99.90
30063;DHT22;16889;67.864;24.990;2023-10-08T01:08:01;-3.60;99.90
30063;DHT22;16889;67.864;24.990;2023-10-08T01:12:51;-3.60;99.90
30063;DHT22;16889;67.864;24.990;2023-10-08T01:17:50;-3.80;99.90
30063;DHT22;16889;67.864;24.990;2023-10-08T01:23:10;-3.90;99.90
30063;DHT22;16889;67.864;24.990;2023-10-08T01:56:31;-4.80;99.90
30063;DHT22;16889;67.864;24.990;2023-10-08T02:01:21;-4.90;99.90
30063;DHT22;16889;67.864;24.990;2023-10-08T02:06:07;-5.00;99.90
30063;DHT22;16889;67.864;24.990;2023-10-08T02:10:54;-5.00;99.90
30063;DHT22;16889;67.864;24.990;2023-10-08T02:15:45;-5.00;99.90
30063;DHT22;16889;67.864;24.990;2023-10-08T02:20:33;-5.00;99.90
30063;DHT22;16889;67.864;24.990;2023-10-08T02:25:19;-4.80;99.90
30063;DHT22;16889;67.864;24.990;2023-10-08T02:30:05;-4.70;99.90
30063;DHT22;16889;67.864;24.990;2023-10-08T02:34:54;-4.60;99.90
30063;DHT22;16889;67.864;24.990;2023-10-08T02:39:42;-4.60;99.90
30063;DHT22;16889;67.864;24.990;2023-10-08T02:44:28;-4.70;99.90
30063;DHT22;16889;67.864;24.990;2023-10-08T02:49:20;-4.80;99.90
30063;DHT22;16889;67.864;24.990;2023-10-08T02:54:07;-4.90;99.90
30063;DHT22;16889;67.864;24.990;2023-10-08T02:59:02;-5.00;99.90
30063;DHT22;16889;67.864;24.990;2023-10-08T03:03:49;-5.10;99.90
30063;DHT22;16889;67.864;24.990;2023-10-08T03:08:35;-5.20;99.90
30063;DHT22;16889;67.864;24.990;2023-10-08T03:13:22;-5.20;99.90
30063;DHT22;16889;67.864;24.990;2023-10-08T03:18:08;-5.20;99.90
30063;DHT22;16889;67.864;24.990;2023-10-08T03:34:19;-5.40;99.90
30063;DHT22;16889;67.864;24.990;2023-10-08T03:39:06;-5.50;99.90
30063;DHT22;16889;67.864;24.990;2023-10-08T03:43:59;-5.40;99.90
30063;DHT22;16889;67.864;24.990;2023-10-08T03:48:47;-5.50;99.90
30063;DHT22;16889;67.864;24.990;2023-10-08T03:53:37;-5.50;99.90
30063;DHT22;16889;67.864;24.990;2023-10-08T03:58:28;-5.40;99.90
30063;DHT22;16889;67.864;24.990;2023-10-08T04:03:16;-5.30;99.90
30063;DHT22;16889;67.864;24.990;2023-10-08T04:08:09;-5.10;99.90
30063;DHT22;16889;67.864;24.990;2023-10-08T04:13:24;-4.80;99.90
30063;DHT22;16889;67.864;24.990;2023-10-08T04:18:11;-4.80;99.90
30063;DHT22;16889;67.864;24.990;2023-10-08T04:23:00;-4.80;99.90
30063;DHT22;16889;67.864;24.990;2023-10-08T04:27:46;-4.70;99.90
30063;DHT22;16889;67.864;24.990;2023-10-08T04:32:35;-4.60;99.90
30063;DHT22;16889;67.864;24.990;2023-10-08T04:37:22;-4.40;99.90
30063;DHT22;16889;67.864;24.990;2023-10-08T04:42:12;-4.30;99.90
30063;DHT22;16889;67.864;24.990;2023-10-08T04:47:00;-4.10;99.90
30063;DHT22;16889;67.864;24.990;2023-10-08T04:51:50;-4.00;99.90
30063;DHT22;16889;67.864;24.990;2023-10-08T04:56:40;-4.00;99.90
30063;DHT22;16889;67.864;24.990;2023-10-08T05:01:26;-3.80;99.90
30063;DHT22;16889;67.864;24.990;2023-10-08T05:06:28;-3.60;99.90
30063;DHT22;16889;67.864;24.990;2023-10-08T05:11:23;-3.40;99.90
30063;DHT22;16889;67.864;24.990;2023-10-08T05:16:32;-3.20;99.90
30063;DHT22;16889;67.864;24.990;2023-10-08T05:21:29;-3.00;99.90
30063;DHT22;16889;67.864;24.990;2023-10-08T05:26:26;-2.90;99.90
30063;DHT22;16889;67.864;24.990;2023-10-08T05:31:28;-2.80;99.90
30063;DHT22;16889;67.864;24.990;2023-10-08T05:36:32;-2.80;99.90
30063;DHT22;16889;67.864;24.990;2023-10-08T05:41:35;-2.80;99.90
30063;DHT22;16889;67.864;24.990;2023-10-08T05:46:36;-2.90;99.90
30063;DHT22;16889;67.864;24.990;2023-10-08T05:51:37;-2.90;99.90
30063;DHT22;16889;67.864;24.990;2023-10-08T05:56:32;-3.00;99.90
30063;DHT22;16889;67.864;24.990;2023-10-08T06:01:38;-2.80;99.90
30063;DHT22;16889;67.864;24.990;2023-10-08T06:06:26;-2.70;99.90
30063;DHT22;16889;67.864;24.990;2023-10-08T06:11:23;-2.50;99.90
30063;DHT22;16889;67.864;24.990;2023-10-08T06:16:27;-2.40;99.90
30063;DHT22;16889;67.864;24.990;2023-10-08T06:21:27;-2.10;99.90
30063;DHT22;16889;67.864;24.990;2023-10-08T06:26:13;-1.90;99.90
30063;DHT22;16889;67.864;24.990;2023-10-08T06:30:59;-1.70;99.90
30063;DHT22;16889;67.864;24.990;2023-10-08T06:35:45;-1.50;99.90
30063;DHT22;16889;67.864;24.990;2023-10-08T06:40:47;-1.30;99.90
30063;DHT22;16889;67.864;24.990;2023-10-08T06:45:33;-1.20;99.90
30063;DHT22;16889;67.864;24.990;2023-10-08T06:50:21;-1.10;99.90
30063;DHT22;16889;67.864;24.990;2023-10-08T06:55:08;-0.80;99.90
30063;DHT22;16889;67.864;24.990;2023-10-08T06:59:57;-0.90;99.90
30063;DHT22;16889;67.864;24.990;2023-10-08T07:04:44;-0.80;99.90
30063;DHT22;16889;67.864;24.990;2023-10-08T07:09:33;-0.90;99.90
30063;DHT22;16889;67.864;24.990;2023-10-08T07:14:25;-0.80;99.90
30063;DHT22;16889;67.864;24.990;2023-10-08T07:19:14;-0.70;99.90
30063;DHT22;16889;67.864;24.990;2023-10-08T07:24:05;-0.60;99.90
30063;DHT22;16889;67.864;24.990;2023-10-08T07:28:55;-0.60;99.90
30063;DHT22;16889;67.864;24.990;2023-10-08T07:33:45;-0.30;99.90
30063;DHT22;16889;67.864;24.990;2023-10-08T07:38:32;-0.20;99.90
30063;DHT22;16889;67.864;24.990;2023-10-08T07:43:18;-0.30;99.90
30063;DHT22;16889;67.864;24.990;2023-10-08T07:48:06;-0.50;99.90
30063;DHT22;16889;67.864;24.990;2023-10-08T07:52:55;-0.40;99.90
30063;DHT22;16889;67.864;24.990;2023-10-08T07:57:41;-0.10;99.90
30063;DHT22;16889;67.864;24.990;2023-10-08T08:02:27;-0.10;99.90
30063;DHT22;16889;67.864;24.990;2023-10-08T08:07:14;0.00;99.90
30063;DHT22;16889;67.864;24.990;2023-10-08T08:12:06;-0.10;99.90
30063;DHT22;16889;67.864;24.990;2023-10-08T08:16:56;0.10;99.90
30063;DHT22;16889;67.864;24.990;2023-10-08T08:21:58;0.00;99.90
30063;DHT22;16889;67.864;24.990;2023-10-08T08:26:50;-0.10;99.90
30063;DHT22;16889;67.864;24.990;2023-10-08T08:31:57;-0.30;99.90
30063;DHT22;16889;67.864;24.990;2023-10-08T08:36:43;0.10;99.90
30063;DHT22;16889;67.864;24.990;2023-10-08T08:41:32;0.20;99.90
30063;DHT22;16889;67.864;24.990;2023-10-08T08:46:21;0.30;99.90
30063;DHT22;16889;67.864;24.990;2023-10-08T08:51:08;0.30;99.90
30063;DHT22;16889;67.864;24.990;2023-10-08T08:55:58;0.40;99.90
30063;DHT22;16889;67.864;24.990;2023-10-08T09:00:47;0.40;99.90
30063;DHT22;16889;67.864;24.990;2023-10-08T09:05:37;0.40;99.90
30063;DHT22;16889;67.864;24.990;2023-10-08T09:10:26;0.40;99.90
30063;DHT22;16889;67.864;24.990;2023-10-08T09:15:15;0.50;99.90
30063;DHT22;16889;67.864;24.990;2023-10-08T09:20:02;0.70;99.90
30063;DHT22;16889;67.864;24.990;2023-10-08T09:24:54;0.80;99.90
30063;DHT22;16889;67.864;24.990;2023-10-08T09:29:41;0.80;99.90
30063;DHT22;16889;67.864;24.990;2023-10-08T09:34:29;0.80;99.90
30063;DHT22;16889;67.864;24.990;2023-10-08T09:39:16;0.70;99.90
30063;DHT22;16889;67.864;24.990;2023-10-08T09:44:09;0.80;99.90
30063;DHT22;16889;67.864;24.990;2023-10-08T09:48:59;1.00;99.90
30063;DHT22;16889;67.864;24.990;2023-10-08T09:54:00;0.90;99.90
30063;DHT22;16889;67.864;24.990;2023-10-08T09:58:50;0.70;99.90
30063;DHT22;16889;67.864;24.990;2023-10-08T10:03:36;0.90;99.90
30063;DHT22;16889;67.864;24.990;2023-10-08T10:08:22;1.00;99.90
30063;DHT22;16889;67.864;24.990;2023-10-08T10:13:11;1.10;99.90
30063;DHT22;16889;67.864;24.990;2023-10-08T10:28:22;1.00;99.90
30063;DHT22;16889;67.864;24.990;2023-10-08T10:33:08;1.10;99.90
30063;DHT22;16889;67.864;24.990;2023-10-08T10:37:57;0.90;99.90
30063;DHT22;16889;67.864;24.990;2023-10-08T10:42:49;0.80;99.90
30063;DHT22;16889;67.864;24.990;2023-10-08T10:47:39;0.90;99.90
30063;DHT22;16889;67.864;24.990;2023-10-08T10:52:32;0.90;99.90
30063;DHT22;16889;67.864;24.990;2023-10-08T10:57:18;1.10;99.90
30063;DHT22;16889;67.864;24.990;2023-10-08T11:02:12;1.20;99.90
30063;DHT22;16889;67.864;24.990;2023-10-08T11:07:21;1.20;99.90
30063;DHT22;16889;67.864;24.990;2023-10-08T11:12:07;1.20;99.90
30063;DHT22;16889;67.864;24.990;2023-10-08T11:16:56;1.40;99.90
30063;DHT22;16889;67.864;24.990;2023-10-08T11:21:52;1.50;99.90
30063;DHT22;16889;67.864;24.990;2023-10-08T11:26:41;1.90;99.90
30063;DHT22;16889;67.864;24.990;2023-10-08T11:31:47;2.00;99.90
30063;DHT22;16889;67.864;24.990;2023-10-08T11:36:36;1.70;99.90
30063;DHT22;16889;67.864;24.990;2023-10-08T11:41:34;1.50;99.90
30063;DHT22;16889;67.864;24.990;2023-10-08T11:46:35;1.70;99.90
30063;DHT22;16889;67.864;24.990;2023-10-08T11:51:27;2.00;99.90
30063;DHT22;16889;67.864;24.990;2023-10-08T11:56:13;2.10;99.90
30063;DHT22;16889;67.864;24.990;2023-10-08T12:00:59;1.80;99.90
30063;DHT22;16889;67.864;24.990;2023-10-08T12:05:49;2.00;99.90
30063;DHT22;16889;67.864;24.990;2023-10-08T12:10:38;2.10;99.90
30063;DHT22;16889;67.864;24.990;2023-10-08T12:15:24;2.50;99.90
30063;DHT22;16889;67.864;24.990;2023-10-08T12:20:19;2.50;99.90
30063;DHT22;16889;67.864;24.990;2023-10-08T12:25:08;2.80;99.90
30063;DHT22;16889;67.864;24.990;2023-10-08T12:29:54;2.90;99.90
30063;DHT22;16889;67.864;24.990;2023-10-08T12:34:44;2.80;99.90
30063;DHT22;16889;67.864;24.990;2023-10-08T12:39:30;2.80;99.90
30063;DHT22;16889;67.864;24.990;2023-10-08T12:44:17;2.60;99.90
30063;DHT22;16889;67.864;24.990;2023-10-08T12:49:04;2.70;99.90
30063;DHT22;16889;67.864;24.990;2023-10-08T12:53:51;2.60;99.90
30063;DHT22;16889;67.864;24.990;2023-10-08T12:58:44;2.70;99.90
30063;DHT22;16889;67.864;24.990;2023-10-08T13:03:33;2.70;99.90
30063;DHT22;16889;67.864;24.990;2023-10-08T13:08:26;2.80;99.90
30063;DHT22;16889;67.864;24.990;2023-10-08T13:13:13;2.80;99.90
30063;DHT22;16889;67.864;24.990;2023-10-08T13:17:59;3.10;99.90
30063;DHT22;16889;67.864;24.990;2023-10-08T13:22:48;3.10;99.90
30063;DHT22;16889;67.864;24.990;2023-10-08T13:27:34;2.80;99.90
30063;DHT22;16889;67.864;24.990;2023-10-08T13:32:24;2.80;99.90
30063;DHT22;16889;67.864;24.990;2023-10-08T13:37:10;2.80;99.90
30063;DHT22;16889;67.864;24.990;2023-10-08T13:41:56;2.80;99.90
30063;DHT22;16889;67.864;24.990;2023-10-08T13:46:47;2.60;99.90
30063;DHT22;16889;67.864;24.990;2023-10-08T13:51:35;2.70;99.90
30063;DHT22;16889;67.864;24.990;2023-10-08T13:56:23;2.80;99.90
30063;DHT22;16889;67.864;24.990;2023-10-08T14:01:13;2.60;99.90
30063;DHT22;16889;67.864;24.990;2023-10-08T14:06:05;2.70;99.90
30063;DHT22;16889;67.864;24.990;2023-10-08T14:10:53;2.40;99.90
30063;DHT22;16889;67.864;24.990;2023-10-08T14:15:42;2.40;99.90
30063;DHT22;16889;67.864;24.990;2023-10-08T14:20:32;2.50;99.90
30063;DHT22;16889;67.864;24.990;2023-10-08T14:25:18;2.50;99.90
30063;DHT22;16889;67.864;24.990;2023-10-08T14:30:10;2.40;99.90
30063;DHT22;16889;67.864;24.990;2023-10-08T14:35:07;2.40;99.90
30063;DHT22;16889;67.864;24.990;2023-10-08T14:40:11;2.30;99.90
30063;DHT22;16889;67.864;24.990;2023-10-08T14:45:15;2.30;99.90
30063;DHT22;16889;67.864;24.990;2023-10-08T14:50:05;2.30;99.90
30063;DHT22;16889;67.864;24.990;2023-10-08T14:54:51;2.20;99.90
30063;DHT22;16889;67.864;24.990;2023-10-08T14:59:37;2.20;99.90
30063;DHT22;16889;67.864;24.990;2023-10-08T15:10:20;1.90;99.90
30063;DHT22;16889;67.864;24.990;2023-10-08T15:15:09;1.60;99.90
30063;DHT22;16889;67.864;24.990;2023-10-08T15:19:58;1.50;99.90
30063;DHT22;16889;67.864;24.990;2023-10-08T15:24:45;1.30;99.90
30063;DHT22;16889;67.864;24.990;2023-10-08T15:29:32;1.20;99.90
30063;DHT22;16889;67.864;24.990;2023-10-08T15:34:18;1.20;99.90
30063;DHT22;16889;67.864;24.990;2023-10-08T15:39:05;1.20;99.90
30063;DHT22;16889;67.864;24.990;2023-10-08T15:43:52;1.20;99.90
30063;DHT22;16889;67.864;24.990;2023-10-08T15:48:39;1.30;99.90
30063;DHT22;16889;67.864;24.990;2023-10-08T15:53:43;1.30;99.90
30063;DHT22;16889;67.864;24.990;2023-10-08T15:58:29;1.50;99.90
30063;DHT22;16889;67.864;24.990;2023-10-08T16:03:15;1.50;99.90
30063;DHT22;16889;67.864;24.990;2023-10-08T16:08:03;1.40;99.90
30063;DHT22;16889;67.864;24.990;2023-10-08T16:12:49;1.60;99.90
30063;DHT22;16889;67.864;24.990;2023-10-08T16:17:35;1.70;99.90
30063;DHT22;16889;67.864;24.990;2023-10-08T16:22:23;1.70;99.90
30063;DHT22;16889;67.864;24.990;2023-10-08T16:32:55;1.70;99.90
30063;DHT22;16889;67.864;24.990;2023-10-08T16:37:44;1.80;99.90
30063;DHT22;16889;67.864;24.990;2023-10-08T16:42:30;1.80;99.90
30063;DHT22;16889;67.864;24.990;2023-10-08T16:47:16;1.70;99.90
30063;DHT22;16889;67.864;24.990;2023-10-08T16:52:04;1.80;99.90
30063;DHT22;16889;67.864;24.990;2023-10-08T16:56:50;1.80;99.90
30063;DHT22;16889;67.864;24.990;2023-10-08T17:01:36;1.70;99.90
30063;DHT22;16889;67.864;24.990;2023-10-08T17:06:24;1.70;99.90
30063;DHT22;16889;67.864;24.990;2023-10-08T17:11:10;1.60;99.90
30063;DHT22;16889;67.864;24.990;2023-10-08T17:15:56;1.60;99.90
30063;DHT22;16889;67.864;24.990;2023-10-08T17:20:44;1.50;99.90
30063;DHT22;16889;67.864;24.990;2023-10-08T17:25:30;1.40;99.90
30063;DHT22;16889;67.864;24.990;2023-10-08T17:30:16;1.30;99.90
30063;DHT22;16889;67.864;24.990;2023-10-08T17:35:07;1.30;99.90
30063;DHT22;16889;67.864;24.990;2023-10-08T17:39:54;1.20;99.90
30063;DHT22;16889;67.864;24.990;2023-10-08T17:44:41;1.00;99.90
30063;DHT22;16889;67.864;24.990;2023-10-08T17:49:27;0.80;99.90
30063;DHT22;16889;67.864;24.990;2023-10-08T17:54:13;0.60;99.90
30063;DHT22;16889;67.864;24.990;2023-10-08T17:58:59;0.50;99.90
30063;DHT22;16889;67.864;24.990;2023-10-08T18:03:46;0.30;99.90
30063;DHT22;16889;67.864;24.990;2023-10-08T18:08:34;0.20;99.90
30063;DHT22;16889;67.864;24.990;2023-10-08T18:13:20;0.00;99.90
30063;DHT22;16889;67.864;24.990;2023-10-08T18:18:06;-0.10;99.90
30063;DHT22;16889;67.864;24.990;2023-10-08T18:22:55;-0.20;99.90
30063;DHT22;16889;67.864;24.990;2023-10-08T18:27:41;-0.30;99.90
30063;DHT22;16889;67.864;24.990;2023-10-08T18:32:27;-0.40;99.90
30063;DHT22;16889;67.864;24.990;2023-10-08T18:37:14;-0.50;99.90
30063;DHT22;16889;67.864;24.990;2023-10-08T18:42:02;-0.60;99.90
30063;DHT22;16889;67.864;24.990;2023-10-08T18:46:48;-0.70;99.90
30063;DHT22;16889;67.864;24.990;2023-10-08T18:51:34;-0.80;99.90
30063;DHT22;16889;67.864;24.990;2023-10-08T18:56:21;-0.80;99.90
30063;DHT22;16889;67.864;24.990;2023-10-08T19:01:08;-0.80;99.90
30063;DHT22;16889;67.864;24.990;2023-10-08T19:05:53;-0.90;99.90
30063;DHT22;16889;67.864;24.990;2023-10-08T19:10:42;-0.90;99.90
30063;DHT22;16889;67.864;24.990;2023-10-08T19:15:28;-1.00;99.90
30063;DHT22;16889;67.864;24.990;2023-10-08T19:20:14;-1.00;99.90
30063;DHT22;16889;67.864;24.990;2023-10-08T19:25:02;-1.20;99.90
30063;DHT22;16889;67.864;24.990;2023-10-08T19:29:49;-1.20;99.90
30063;DHT22;16889;67.864;24.990;2023-10-08T19:34:35;-1.10;99.90
30063;DHT22;16889;67.864;24.990;2023-10-08T19:39:22;-1.10;99.90
30063;DHT22;16889;67.864;24.990;2023-10-08T19:44:08;-1.10;99.90
30063;DHT22;16889;67.864;24.990;2023-10-08T19:48:55;-1.10;99.90
30063;DHT22;16889;67.864;24.990;2023-10-08T19:53:43;-1.30;99.90
30063;DHT22;16889;67.864;24.990;2023-10-08T19:58:37;-1.50;99.90
30063;DHT22;16889;67.864;24.990;2023-10-08T20:03:23;-1.60;99.90
30063;DHT22;16889;67.864;24.990;2023-10-08T20:08:09;-1.60;99.90
30063;DHT22;16889;67.864;24.990;2023-10-08T20:12:58;-1.60;99.90
30063;DHT22;16889;67.864;24.990;2023-10-08T20:17:45;-1.60;99.90
30063;DHT22;16889;67.864;24.990;2023-10-08T20:22:31;-1.60;99.90
30063;DHT22;16889;67.864;24.990;2023-10-08T20:27:18;-1.60;99.90
30063;DHT22;16889;67.864;24.990;2023-10-08T20:32:05;-1.70;99.90
30063;DHT22;16889;67.864;24.990;2023-10-08T20:36:53;-1.80;99.90
30063;DHT22;16889;67.864;24.990;2023-10-08T20:41:40;-1.80;99.90
30063;DHT22;16889;67.864;24.990;2023-10-08T20:46:28;-1.90;99.90
30063;DHT22;16889;67.864;24.990;2023-10-08T20:51:13;-1.90;99.90
30063;DHT22;16889;67.864;24.990;2023-10-08T20:56:06;-2.10;99.90
30063;DHT22;16889;67.864;24.990;2023-10-08T21:00:55;-2.10;99.90
30063;DHT22;16889;67.864;24.990;2023-10-08T21:05:42;-2.10;99.90
30063;DHT22;16889;67.864;24.990;2023-10-08T21:10:28;-2.10;99.90
30063;DHT22;16889;67.864;24.990;2023-10-08T21:15:15;-2.10;99.90
30063;DHT22;16889;67.864;24.990;2023-10-08T21:20:06;-2.10;99.90
30063;DHT22;16889;67.864;24.990;2023-10-08T21:24:58;-2.10;99.90
30063;DHT22;16889;67.864;24.990;2023-10-08T21:29:44;-2.20;99.90
30063;DHT22;16889;67.864;24.990;2023-10-08T21:34:29;-2.20;99.90
30063;DHT22;16889;67.864;24.990;2023-10-08T21:39:15;-2.20;99.90
30063;DHT22;16889;67.864;24.990;2023-10-08T21:44:03;-2.20;99.90
30063;DHT22;16889;67.864;24.990;2023-10-08T21:48:52;-2.20;99.90
30063;DHT22;16889;67.864;24.990;2023-10-08T21:53:38;-2.30;99.90
30063;DHT22;16889;67.864;24.990;2023-10-08T21:58:24;-2.30;99.90
30063;DHT22;16889;67.864;24.990;2023-10-08T22:03:11;-2.40;99.90
30063;DHT22;16889;67.864;24.990;2023-10-08T22:07:59;-2.40;99.90
30063;DHT22;16889;67.864;24.990;2023-10-08T22:12:50;-2.50;99.90
30063;DHT22;16889;67.864;24.990;2023-10-08T22:17:39;-2.60;99.90
30063;DHT22;16889;67.864;24.990;2023-10-08T22:22:29;-2.60;99.90
30063;DHT22;16889;67.864;24.990;2023-10-08T22:27:15;-2.60;99.90
30063;DHT22;16889;67.864;24.990;2023-10-08T22:32:19;-2.60;99.90
30063;DHT22;16889;67.864;24.990;2023-10-08T22:37:05;-2.70;99.90
30063;DHT22;16889;67.864;24.990;2023-10-08T22:42:04;-2.80;99.90
30063;DHT22;16889;67.864;24.990;2023-10-08T22:46:54;-2.90;99.90
30063;DHT22;16889;67.864;24.990;2023-10-08T22:51:52;-3.00;99.90
30063;DHT22;16889;67.864;24.990;2023-10-08T22:56:41;-3.10;99.90
30063;DHT22;16889;67.864;24.990;2023-10-08T23:01:27;-3.10;99.90
30063;DHT22;16889;67.864;24.990;2023-10-08T23:06:14;-3.10;99.90
30063;DHT22;16889;67.864;24.990;2023-10-08T23:11:00;-3.20;99.90
30063;DHT22;16889;67.864;24.990;2023-10-08T23:44:46;-2.90;99.90
30063;DHT22;16889;67.864;24.990;2023-10-08T23:49:34;-2.80;99.90
30063;DHT22;16889;67.864;24.990;2023-10-08T23:54:34;-2.80;99.90
30063;DHT22;16889;67.864;24.990;2023-10-08T23:59:20;-2.80;99.90
